createdAt,value
2018-08-18T00:00:05.939Z,4.00
2018-08-18T00:01:05.978Z,4.00
2018-08-18T00:02:06.596Z,4.00
2018-08-18T00:03:05.958Z,4.00
2018-08-18T00:04:05.930Z,4.00
2018-08-18T00:05:05.930Z,4.00
2018-08-18T00:06:05.939Z,4.00
2018-08-18T00:07:05.937Z,4.00
2018-08-18T00:08:05.987Z,4.00
2018-08-18T00:09:05.945Z,4.00
2018-08-18T00:10:05.943Z,4.00
2018-08-18T00:11:05.957Z,4.00
2018-08-18T00:12:05.950Z,4.00
2018-08-18T00:13:05.951Z,4.00
2018-08-18T00:14:05.960Z,4.00
2018-08-18T00:15:05.956Z,4.00
2018-08-18T00:16:05.961Z,4.00
2018-08-18T00:17:05.964Z,4.00
2018-08-18T00:18:05.965Z,4.00
2018-08-18T00:19:05.966Z,4.00
2018-08-18T00:20:05.969Z,4.00
2018-08-18T00:21:05.973Z,4.00
2018-08-18T00:22:05.972Z,4.00
2018-08-18T00:23:05.993Z,4.00
2018-08-18T00:24:05.985Z,4.00
2018-08-18T00:25:05.983Z,4.00
2018-08-18T00:26:05.985Z,4.00
2018-08-18T00:27:05.984Z,4.00
2018-08-18T00:28:05.991Z,4.00
2018-08-18T00:29:06.009Z,4.00
2018-08-18T00:30:05.992Z,4.00
2018-08-18T00:31:05.998Z,4.00
2018-08-18T00:32:06.000Z,4.00
2018-08-18T00:33:06.999Z,4.00
2018-08-18T00:34:06.030Z,4.00
2018-08-18T00:35:06.003Z,4.00
2018-08-18T00:36:06.031Z,4.00
2018-08-18T00:37:06.009Z,4.00
2018-08-18T00:38:06.010Z,4.00
2018-08-18T00:39:06.023Z,4.00
2018-08-18T00:40:06.067Z,4.00
2018-08-18T00:41:06.017Z,4.00
2018-08-18T00:42:06.036Z,4.00
2018-08-18T00:43:06.021Z,4.00
2018-08-18T00:44:06.029Z,4.00
2018-08-18T00:45:06.024Z,4.00
2018-08-18T00:46:06.028Z,4.00
2018-08-18T00:47:06.033Z,4.00
2018-08-18T00:48:06.043Z,4.00
2018-08-18T00:49:06.033Z,4.00
2018-08-18T00:50:06.034Z,4.00
2018-08-18T00:51:06.037Z,4.00
2018-08-18T00:52:06.040Z,4.00
2018-08-18T00:53:06.039Z,4.00
2018-08-18T00:54:06.048Z,4.00
2018-08-18T00:55:06.046Z,4.00
2018-08-18T00:56:06.065Z,4.00
2018-08-18T00:57:06.062Z,4.00
2018-08-18T00:58:06.049Z,4.00
2018-08-18T00:59:06.051Z,4.00
2018-08-18T01:00:06.052Z,4.00
2018-08-18T01:01:06.054Z,4.00
2018-08-18T01:02:06.054Z,4.00
2018-08-18T01:03:06.057Z,4.00
2018-08-18T01:04:06.059Z,4.00
2018-08-18T01:05:06.066Z,4.00
2018-08-18T01:06:06.067Z,4.00
2018-08-18T01:07:06.067Z,4.00
2018-08-18T01:08:06.070Z,4.00
2018-08-18T01:09:06.068Z,4.00
2018-08-18T01:10:06.068Z,4.00
2018-08-18T01:11:06.162Z,4.00
2018-08-18T01:12:06.252Z,4.00
2018-08-18T01:13:06.134Z,4.00
2018-08-18T01:14:06.185Z,4.00
2018-08-18T01:15:06.093Z,4.00
2018-08-18T01:16:06.083Z,4.00
2018-08-18T01:17:06.084Z,4.00
2018-08-18T01:18:06.095Z,4.00
2018-08-18T01:19:06.094Z,4.00
2018-08-18T01:20:06.091Z,4.00
2018-08-18T01:21:06.158Z,4.00
2018-08-18T01:22:06.218Z,4.00
2018-08-18T01:23:06.095Z,4.00
2018-08-18T01:24:06.101Z,4.00
2018-08-18T01:25:06.152Z,4.00
2018-08-18T01:26:06.273Z,4.00
2018-08-18T01:27:06.137Z,4.00
2018-08-18T01:28:06.302Z,4.00
2018-08-18T01:29:06.112Z,4.00
2018-08-18T01:30:06.110Z,4.00
2018-08-18T01:31:06.141Z,4.00
2018-08-18T01:32:06.321Z,4.00
2018-08-18T01:33:06.137Z,4.00
2018-08-18T01:34:06.202Z,4.00
2018-08-18T01:35:06.233Z,4.00
2018-08-18T01:36:06.173Z,4.00
2018-08-18T01:37:06.941Z,4.00
2018-08-18T01:38:06.137Z,4.00
2018-08-18T01:39:06.132Z,4.00
2018-08-18T01:40:06.142Z,4.00
2018-08-18T01:41:06.158Z,4.00
2018-08-18T01:42:06.135Z,4.00
2018-08-18T01:43:06.137Z,4.00
2018-08-18T01:44:06.139Z,4.00
2018-08-18T01:45:06.142Z,4.00
2018-08-18T01:46:06.143Z,4.00
2018-08-18T01:47:06.146Z,4.00
2018-08-18T01:48:06.148Z,4.00
2018-08-18T01:49:06.150Z,4.00
2018-08-18T01:50:06.151Z,4.00
2018-08-18T01:51:06.185Z,4.00
2018-08-18T01:52:06.160Z,4.00
2018-08-18T01:53:06.157Z,4.00
2018-08-18T01:54:06.163Z,4.00
2018-08-18T01:55:06.162Z,4.00
2018-08-18T01:56:06.165Z,4.00
2018-08-18T01:57:06.168Z,4.00
2018-08-18T01:58:06.168Z,4.00
2018-08-18T01:59:06.170Z,4.00
2018-08-18T02:00:06.173Z,4.00
2018-08-18T02:01:06.176Z,4.00
2018-08-18T02:02:06.175Z,4.00
2018-08-18T02:03:06.335Z,4.00
2018-08-18T02:04:06.242Z,4.00
2018-08-18T02:05:06.912Z,4.00
2018-08-18T02:06:06.185Z,4.00
2018-08-18T02:07:06.187Z,4.00
2018-08-18T02:08:06.188Z,4.00
2018-08-18T02:09:06.189Z,4.00
2018-08-18T02:10:06.194Z,4.00
2018-08-18T02:11:06.197Z,4.00
2018-08-18T02:12:06.200Z,4.00
2018-08-18T02:13:06.209Z,4.00
2018-08-18T02:14:06.201Z,4.00
2018-08-18T02:15:06.204Z,4.00
2018-08-18T02:16:06.208Z,4.00
2018-08-18T02:17:06.217Z,4.00
2018-08-18T02:18:06.209Z,4.00
2018-08-18T02:19:06.217Z,4.00
2018-08-18T02:20:06.232Z,4.00
2018-08-18T02:21:06.214Z,4.00
2018-08-18T02:22:06.223Z,4.00
2018-08-18T02:23:06.221Z,4.00
2018-08-18T02:24:06.223Z,4.00
2018-08-18T02:25:06.225Z,4.00
2018-08-18T02:26:06.240Z,4.00
2018-08-18T02:27:06.228Z,4.00
2018-08-18T02:28:06.234Z,4.00
2018-08-18T02:29:06.231Z,4.00
2018-08-18T02:30:06.237Z,4.00
2018-08-18T02:31:06.237Z,4.00
2018-08-18T02:32:06.240Z,4.00
2018-08-18T02:33:06.241Z,4.00
2018-08-18T02:34:06.245Z,4.00
2018-08-18T02:35:06.245Z,4.00
2018-08-18T02:36:06.533Z,4.00
2018-08-18T02:37:06.252Z,4.00
2018-08-18T02:38:06.250Z,4.00
2018-08-18T02:39:06.252Z,4.00
2018-08-18T02:40:06.301Z,4.00
2018-08-18T02:41:06.256Z,4.00
2018-08-18T02:42:06.361Z,4.00
2018-08-18T02:43:06.303Z,4.00
2018-08-18T02:44:06.264Z,4.00
2018-08-18T02:45:06.264Z,4.00
2018-08-18T02:46:06.266Z,4.00
2018-08-18T02:47:06.266Z,4.00
2018-08-18T02:48:06.276Z,4.00
2018-08-18T02:49:06.273Z,4.00
2018-08-18T02:50:06.276Z,4.00
2018-08-18T02:51:06.277Z,4.00
2018-08-18T02:52:06.279Z,4.00
2018-08-18T02:53:06.278Z,4.00
2018-08-18T02:54:06.281Z,4.00
2018-08-18T02:55:06.286Z,4.00
2018-08-18T02:56:06.289Z,4.00
2018-08-18T02:57:06.291Z,4.00
2018-08-18T02:58:06.290Z,4.00
2018-08-18T02:59:06.292Z,4.00
2018-08-18T03:00:06.293Z,4.00
2018-08-18T03:01:06.293Z,4.00
2018-08-18T03:02:06.295Z,4.00
2018-08-18T03:03:06.298Z,4.00
2018-08-18T03:04:06.302Z,4.00
2018-08-18T03:05:06.300Z,4.00
2018-08-18T03:06:06.305Z,4.00
2018-08-18T03:07:06.938Z,4.00
2018-08-18T03:08:06.309Z,4.00
2018-08-18T03:09:06.308Z,4.00
2018-08-18T03:10:06.312Z,4.00
2018-08-18T03:11:06.312Z,4.00
2018-08-18T03:12:06.316Z,4.00
2018-08-18T03:13:06.319Z,4.00
2018-08-18T03:14:06.320Z,4.00
2018-08-18T03:15:06.323Z,4.00
2018-08-18T03:16:06.323Z,4.00
2018-08-18T03:17:06.324Z,4.00
2018-08-18T03:18:42.013Z,4.00
2018-08-18T03:19:06.330Z,4.00
2018-08-18T03:20:06.330Z,4.00
2018-08-18T03:21:06.377Z,4.00
2018-08-18T03:22:06.332Z,4.00
2018-08-18T03:23:06.334Z,4.00
2018-08-18T03:24:06.337Z,8.00
2018-08-18T03:25:06.339Z,8.00
2018-08-18T03:26:06.341Z,4.00
2018-08-18T03:27:06.342Z,4.00
2018-08-18T03:28:06.345Z,4.00
2018-08-18T03:29:06.417Z,4.00
2018-08-18T03:30:06.350Z,4.00
2018-08-18T03:31:06.349Z,4.00
2018-08-18T03:32:06.351Z,4.00
2018-08-18T03:33:06.356Z,4.00
2018-08-18T03:34:06.361Z,8.00
2018-08-18T03:35:06.357Z,8.00
2018-08-18T03:36:06.358Z,8.00
2018-08-18T03:37:06.361Z,8.00
2018-08-18T03:38:07.316Z,8.00
2018-08-18T03:39:06.364Z,8.00
2018-08-18T03:40:06.367Z,8.00
2018-08-18T03:41:06.367Z,8.00
2018-08-18T03:42:06.368Z,4.00
2018-08-18T03:43:06.372Z,8.00
2018-08-18T03:44:06.373Z,8.00
2018-08-18T03:45:06.377Z,8.00
2018-08-18T03:46:06.380Z,8.00
2018-08-18T03:47:06.379Z,8.00
2018-08-18T03:48:06.384Z,8.00
2018-08-18T03:49:06.383Z,12.00
2018-08-18T03:50:06.384Z,8.00
2018-08-18T03:51:06.386Z,12.00
2018-08-18T03:52:06.388Z,8.00
2018-08-18T03:53:06.391Z,12.00
2018-08-18T03:54:06.390Z,8.00
2018-08-18T03:55:06.393Z,12.00
2018-08-18T03:56:06.398Z,12.00
2018-08-18T03:57:06.400Z,12.00
2018-08-18T03:58:06.400Z,12.00
2018-08-18T03:59:06.400Z,16.00
2018-08-18T04:00:06.402Z,16.00
2018-08-18T04:01:06.403Z,20.00
2018-08-18T04:02:06.454Z,20.00
2018-08-18T04:03:06.408Z,24.00
2018-08-18T04:04:06.410Z,28.00
2018-08-18T04:05:06.409Z,28.00
2018-08-18T04:06:06.426Z,32.00
2018-08-18T04:07:06.413Z,36.00
2018-08-18T04:08:06.417Z,40.00
2018-08-18T04:09:06.422Z,40.00
2018-08-18T04:10:06.423Z,40.00
2018-08-18T04:11:06.422Z,44.00
2018-08-18T04:12:06.423Z,48.00
2018-08-18T04:13:06.427Z,56.00
2018-08-18T04:14:06.426Z,64.00
2018-08-18T04:15:06.429Z,68.00
2018-08-18T04:16:06.430Z,72.00
2018-08-18T04:17:06.432Z,80.00
2018-08-18T04:18:06.433Z,80.00
2018-08-18T04:19:06.437Z,80.00
2018-08-18T04:20:06.437Z,88.00
2018-08-18T04:21:06.438Z,92.00
2018-08-18T04:22:06.440Z,96.00
2018-08-18T04:23:06.446Z,104.00
2018-08-18T04:24:06.449Z,108.00
2018-08-18T04:25:06.482Z,116.00
2018-08-18T04:26:06.447Z,120.00
2018-08-18T04:27:06.449Z,124.00
2018-08-18T04:28:06.451Z,128.00
2018-08-18T04:29:06.452Z,128.00
2018-08-18T04:30:06.455Z,132.00
2018-08-18T04:31:06.457Z,136.00
2018-08-18T04:32:06.458Z,148.00
2018-08-18T04:33:06.460Z,156.00
2018-08-18T04:34:06.466Z,168.00
2018-08-18T04:35:06.468Z,176.00
2018-08-18T04:36:06.465Z,188.00
2018-08-18T04:37:06.467Z,192.00
2018-08-18T04:38:06.471Z,204.00
2018-08-18T04:39:06.475Z,208.00
2018-08-18T04:40:06.478Z,216.00
2018-08-18T04:41:06.480Z,220.00
2018-08-18T04:42:06.478Z,228.00
2018-08-18T04:43:06.480Z,232.00
2018-08-18T04:44:06.481Z,240.00
2018-08-18T04:45:06.483Z,244.00
2018-08-18T04:46:06.485Z,256.00
2018-08-18T04:47:06.488Z,264.00
2018-08-18T04:48:06.491Z,268.00
2018-08-18T04:49:06.490Z,280.00
2018-08-18T04:50:06.492Z,288.00
2018-08-18T04:51:06.497Z,296.00
2018-08-18T04:52:06.498Z,304.00
2018-08-18T04:53:06.497Z,312.00
2018-08-18T04:54:06.501Z,324.00
2018-08-18T04:55:06.503Z,328.00
2018-08-18T04:56:06.507Z,336.00
2018-08-18T04:57:06.507Z,340.00
2018-08-18T04:58:06.509Z,356.00
2018-08-18T04:59:06.516Z,372.00
2018-08-18T05:00:06.514Z,384.00
2018-08-18T05:01:06.514Z,396.00
2018-08-18T05:02:06.516Z,412.00
2018-08-18T05:03:06.520Z,428.00
2018-08-18T05:04:06.524Z,444.00
2018-08-18T05:05:06.543Z,464.00
2018-08-18T05:06:06.527Z,484.00
2018-08-18T05:07:06.527Z,488.00
2018-08-18T05:08:06.532Z,492.00
2018-08-18T05:09:06.531Z,500.00
2018-08-18T05:10:06.535Z,504.00
2018-08-18T05:11:06.539Z,508.00
2018-08-18T05:12:06.538Z,512.00
2018-08-18T05:13:06.539Z,524.00
2018-08-18T05:14:06.545Z,540.00
2018-08-18T05:15:06.544Z,552.00
2018-08-18T05:16:06.546Z,560.00
2018-08-18T05:17:06.554Z,568.00
2018-08-18T05:18:06.553Z,576.00
2018-08-18T05:19:06.587Z,572.00
2018-08-18T05:20:06.556Z,572.00
2018-08-18T05:21:06.561Z,576.00
2018-08-18T05:22:06.560Z,592.00
2018-08-18T05:23:06.564Z,604.00
2018-08-18T05:24:06.563Z,616.00
2018-08-18T05:25:06.565Z,628.00
2018-08-18T05:26:06.568Z,648.00
2018-08-18T05:27:06.570Z,660.00
2018-08-18T05:28:06.573Z,672.00
2018-08-18T05:29:06.573Z,688.00
2018-08-18T05:30:06.577Z,696.00
2018-08-18T05:31:06.578Z,708.00
2018-08-18T05:32:06.584Z,716.00
2018-08-18T05:33:06.583Z,724.00
2018-08-18T05:34:06.586Z,728.00
2018-08-18T05:35:06.590Z,728.00
2018-08-18T05:36:06.590Z,736.00
2018-08-18T05:37:06.596Z,760.00
2018-08-18T05:38:06.595Z,784.00
2018-08-18T05:39:06.601Z,804.00
2018-08-18T05:40:06.600Z,808.00
2018-08-18T05:41:06.878Z,804.00
2018-08-18T05:42:06.609Z,808.00
2018-08-18T05:43:06.606Z,808.00
2018-08-18T05:44:06.608Z,824.00
2018-08-18T05:45:06.611Z,844.00
2018-08-18T05:46:06.611Z,868.00
2018-08-18T05:47:06.614Z,872.00
2018-08-18T05:48:06.619Z,872.00
2018-08-18T05:49:06.621Z,872.00
2018-08-18T05:50:06.625Z,868.00
2018-08-18T05:51:06.634Z,852.00
2018-08-18T05:52:06.627Z,836.00
2018-08-18T05:53:06.637Z,836.00
2018-08-18T05:54:06.631Z,852.00
2018-08-18T05:55:06.635Z,876.00
2018-08-18T05:56:06.645Z,896.00
2018-08-18T05:57:06.637Z,924.00
2018-08-18T05:58:06.639Z,944.00
2018-08-18T05:59:06.645Z,948.00
2018-08-18T06:00:06.647Z,964.00
2018-08-18T06:01:06.646Z,960.00
2018-08-18T06:02:06.650Z,996.00
2018-08-18T06:03:06.655Z,1040.00
2018-08-18T06:04:06.654Z,1088.00
2018-08-18T06:05:06.657Z,1116.00
2018-08-18T06:06:06.659Z,1112.00
2018-08-18T06:07:06.660Z,1100.00
2018-08-18T06:08:06.664Z,1108.00
2018-08-18T06:09:06.665Z,1144.00
2018-08-18T06:10:06.668Z,1172.00
2018-08-18T06:11:06.670Z,1180.00
2018-08-18T06:12:07.377Z,1204.00
2018-08-18T06:13:06.738Z,1244.00
2018-08-18T06:14:06.725Z,1276.00
2018-08-18T06:15:06.775Z,1300.00
2018-08-18T06:16:06.685Z,1332.00
2018-08-18T06:17:06.689Z,1364.00
2018-08-18T06:18:06.687Z,1388.00
2018-08-18T06:19:06.691Z,1412.00
2018-08-18T06:20:06.692Z,1412.00
2018-08-18T06:21:06.697Z,1400.00
2018-08-18T06:22:06.701Z,1416.00
2018-08-18T06:23:06.705Z,1432.00
2018-08-18T06:24:06.707Z,1472.00
2018-08-18T06:25:06.712Z,1508.00
2018-08-18T06:26:06.707Z,1540.00
2018-08-18T06:27:06.712Z,1540.00
2018-08-18T06:28:06.713Z,1560.00
2018-08-18T06:29:06.714Z,1568.00
2018-08-18T06:30:06.717Z,1576.00
2018-08-18T06:31:06.720Z,1584.00
2018-08-18T06:32:06.724Z,1588.00
2018-08-18T06:33:06.726Z,1612.00
2018-08-18T06:34:06.731Z,1616.00
2018-08-18T06:35:06.786Z,1624.00
2018-08-18T06:36:06.780Z,1628.00
2018-08-18T06:37:06.735Z,1680.00
2018-08-18T06:38:06.741Z,1720.00
2018-08-18T06:39:06.741Z,1712.00
2018-08-18T06:40:06.749Z,1712.00
2018-08-18T06:41:06.844Z,1732.00
2018-08-18T06:42:06.753Z,1776.00
2018-08-18T06:43:07.684Z,1816.00
2018-08-18T06:44:06.756Z,1864.00
2018-08-18T06:45:06.764Z,1896.00
2018-08-18T06:46:06.800Z,1924.00
2018-08-18T06:47:06.775Z,1928.00
2018-08-18T06:48:06.768Z,1940.00
2018-08-18T06:49:06.773Z,1960.00
2018-08-18T06:50:06.775Z,1992.00
2018-08-18T06:51:06.775Z,2032.00
2018-08-18T06:52:06.777Z,2072.00
2018-08-18T06:53:06.780Z,2100.00
2018-08-18T06:54:06.782Z,2132.00
2018-08-18T06:55:06.980Z,2164.00
2018-08-18T06:56:06.789Z,2184.00
2018-08-18T06:57:06.796Z,2168.00
2018-08-18T06:58:06.797Z,2124.00
2018-08-18T06:59:06.796Z,2064.00
2018-08-18T07:00:06.798Z,1992.00
2018-08-18T07:01:06.800Z,1952.00
2018-08-18T07:02:06.804Z,1936.00
2018-08-18T07:03:06.817Z,1916.00
2018-08-18T07:04:06.812Z,1840.00
2018-08-18T07:05:06.812Z,1668.00
2018-08-18T07:06:06.813Z,1544.00
2018-08-18T07:07:06.818Z,1596.00
2018-08-18T07:08:06.821Z,1744.00
2018-08-18T07:09:06.832Z,1964.00
2018-08-18T07:10:06.826Z,2144.00
2018-08-18T07:11:06.827Z,2188.00
2018-08-18T07:12:06.831Z,2228.00
2018-08-18T07:13:06.838Z,2316.00
2018-08-18T07:14:06.909Z,2396.00
2018-08-18T07:15:06.879Z,2432.00
2018-08-18T07:16:06.839Z,2436.00
2018-08-18T07:17:06.841Z,2392.00
2018-08-18T07:18:06.843Z,2360.00
2018-08-18T07:19:06.847Z,2404.00
2018-08-18T07:20:06.849Z,2568.00
2018-08-18T07:21:06.850Z,2636.00
2018-08-18T07:22:06.858Z,2680.00
2018-08-18T07:23:06.856Z,2716.00
2018-08-18T07:24:06.863Z,2736.00
2018-08-18T07:25:06.863Z,2744.00
2018-08-18T07:26:06.863Z,2724.00
2018-08-18T07:27:06.874Z,2688.00
2018-08-18T07:28:07.137Z,2672.00
2018-08-18T07:29:07.012Z,2664.00
2018-08-18T07:30:06.875Z,2652.00
2018-08-18T07:31:07.090Z,2656.00
2018-08-18T07:32:06.881Z,2656.00
2018-08-18T07:33:06.889Z,2660.00
2018-08-18T07:34:06.887Z,2648.00
2018-08-18T07:35:06.891Z,2596.00
2018-08-18T07:36:06.890Z,2560.00
2018-08-18T07:37:06.929Z,2524.00
2018-08-18T07:38:06.907Z,2476.00
2018-08-18T07:39:06.982Z,2444.00
2018-08-18T07:40:06.907Z,2420.00
2018-08-18T07:41:06.901Z,2400.00
2018-08-18T07:42:06.904Z,2408.00
2018-08-18T07:43:06.909Z,2456.00
2018-08-18T07:44:06.910Z,2500.00
2018-08-18T07:45:06.923Z,2536.00
2018-08-18T07:46:06.918Z,2584.00
2018-08-18T07:47:06.918Z,2624.00
2018-08-18T07:48:07.013Z,2664.00
2018-08-18T07:49:06.924Z,2716.00
2018-08-18T07:50:06.924Z,2776.00
2018-08-18T07:51:06.928Z,2820.00
2018-08-18T07:52:06.933Z,2848.00
2018-08-18T07:53:06.983Z,2880.00
2018-08-18T07:54:06.939Z,2944.00
2018-08-18T07:55:06.940Z,3060.00
2018-08-18T07:56:06.943Z,3160.00
2018-08-18T07:57:06.947Z,3220.00
2018-08-18T07:58:06.954Z,3264.00
2018-08-18T07:59:06.948Z,3340.00
2018-08-18T08:00:06.960Z,3416.00
2018-08-18T08:01:06.956Z,3452.00
2018-08-18T08:02:06.956Z,3452.00
2018-08-18T08:03:06.960Z,3460.00
2018-08-18T08:04:06.963Z,3500.00
2018-08-18T08:05:06.973Z,3532.00
2018-08-18T08:06:06.970Z,3564.00
2018-08-18T08:07:06.969Z,3608.00
2018-08-18T08:08:06.973Z,3640.00
2018-08-18T08:09:06.974Z,3636.00
2018-08-18T08:10:06.976Z,3600.00
2018-08-18T08:11:06.981Z,3592.00
2018-08-18T08:12:06.987Z,3628.00
2018-08-18T08:13:06.986Z,3700.00
2018-08-18T08:14:06.988Z,3728.00
2018-08-18T08:15:06.991Z,3764.00
2018-08-18T08:16:06.995Z,3844.00
2018-08-18T08:17:06.995Z,3944.00
2018-08-18T08:18:07.040Z,4008.00
2018-08-18T08:19:07.004Z,4060.00
2018-08-18T08:20:07.007Z,4096.00
2018-08-18T08:21:07.009Z,4144.00
2018-08-18T08:22:07.014Z,4176.00
2018-08-18T08:23:07.012Z,4252.00
2018-08-18T08:24:07.019Z,4388.00
2018-08-18T08:25:07.032Z,4596.00
2018-08-18T08:26:07.023Z,4732.00
2018-08-18T08:27:07.029Z,4800.00
2018-08-18T08:28:07.029Z,4848.00
2018-08-18T08:29:07.030Z,4932.00
2018-08-18T08:30:07.031Z,5036.00
2018-08-18T08:31:07.035Z,5144.00
2018-08-18T08:32:07.043Z,5212.00
2018-08-18T08:33:07.045Z,5212.00
2018-08-18T08:34:07.049Z,5216.00
2018-08-18T08:35:07.057Z,5320.00
2018-08-18T08:36:07.051Z,5388.00
2018-08-18T08:37:07.054Z,5428.00
2018-08-18T08:38:07.057Z,5432.00
2018-08-18T08:39:07.064Z,5444.00
2018-08-18T08:40:07.064Z,5392.00
2018-08-18T08:41:07.066Z,5320.00
2018-08-18T08:42:07.069Z,5336.00
2018-08-18T08:43:07.106Z,5352.00
2018-08-18T08:44:07.078Z,5324.00
2018-08-18T08:45:07.081Z,5344.00
2018-08-18T08:46:07.325Z,5304.00
2018-08-18T08:47:07.094Z,5096.00
2018-08-18T08:48:07.100Z,4968.00
2018-08-18T08:49:07.162Z,4976.00
2018-08-18T08:50:07.101Z,5060.00
2018-08-18T08:51:07.104Z,5124.00
2018-08-18T08:52:07.104Z,5044.00
2018-08-18T08:53:07.117Z,4920.00
2018-08-18T08:54:07.112Z,4796.00
2018-08-18T08:55:07.117Z,4696.00
2018-08-18T08:56:07.123Z,4692.00
2018-08-18T08:57:07.124Z,4552.00
2018-08-18T08:58:07.135Z,4460.00
2018-08-18T08:59:07.129Z,4800.00
2018-08-18T09:00:07.140Z,5028.00
2018-08-18T09:01:07.143Z,4484.00
2018-08-18T09:02:07.145Z,7704.00
2018-08-18T09:03:07.145Z,12472.00
2018-08-18T09:04:07.148Z,14052.00
2018-08-18T09:05:07.153Z,18816.00
2018-08-18T09:06:07.157Z,22912.00
2018-08-18T09:07:07.165Z,21856.00
2018-08-18T09:08:07.165Z,21472.00
2018-08-18T09:09:07.170Z,22560.00
2018-08-18T09:10:07.180Z,18464.00
2018-08-18T09:11:07.181Z,13148.00
2018-08-18T09:12:07.184Z,8800.00
2018-08-18T09:13:07.188Z,6424.00
2018-08-18T09:14:07.193Z,6280.00
2018-08-18T09:15:07.200Z,6556.00
2018-08-18T09:16:07.203Z,6148.00
2018-08-18T09:17:07.727Z,5368.00
2018-08-18T09:18:07.213Z,4564.00
2018-08-18T09:19:07.219Z,4052.00
2018-08-18T09:20:07.222Z,3748.00
2018-08-18T09:21:07.324Z,3600.00
2018-08-18T09:22:07.235Z,3392.00
2018-08-18T09:23:07.239Z,3264.00
2018-08-18T09:24:07.246Z,3140.00
2018-08-18T09:25:07.247Z,3096.00
2018-08-18T09:26:07.271Z,3120.00
2018-08-18T09:27:07.294Z,3148.00
2018-08-18T09:28:07.278Z,3212.00
2018-08-18T09:29:07.317Z,3324.00
2018-08-18T09:30:07.289Z,3284.00
2018-08-18T09:31:07.278Z,3288.00
2018-08-18T09:32:07.282Z,3396.00
2018-08-18T09:33:07.290Z,3544.00
2018-08-18T09:34:07.334Z,3796.00
2018-08-18T09:35:07.293Z,4060.00
2018-08-18T09:36:07.311Z,4164.00
2018-08-18T09:37:07.299Z,4224.00
2018-08-18T09:38:07.306Z,4360.00
2018-08-18T09:39:07.309Z,4508.00
2018-08-18T09:40:07.313Z,4768.00
2018-08-18T09:41:07.319Z,5284.00
2018-08-18T09:42:07.321Z,5744.00
2018-08-18T09:43:07.324Z,5960.00
2018-08-18T09:44:07.329Z,5860.00
2018-08-18T09:45:07.333Z,5684.00
2018-08-18T09:46:07.339Z,5568.00
2018-08-18T09:47:07.396Z,5544.00
2018-08-18T09:48:08.125Z,5692.00
2018-08-18T09:49:07.353Z,5968.00
2018-08-18T09:50:07.351Z,6124.00
2018-08-18T09:51:07.356Z,6152.00
2018-08-18T09:52:07.363Z,6264.00
2018-08-18T09:53:07.364Z,6276.00
2018-08-18T09:54:07.369Z,6132.00
2018-08-18T09:55:07.378Z,5964.00
2018-08-18T09:56:07.391Z,5844.00
2018-08-18T09:57:07.381Z,5768.00
2018-08-18T09:58:07.386Z,5908.00
2018-08-18T09:59:07.435Z,6164.00
2018-08-18T10:00:07.422Z,6372.00
2018-08-18T10:01:07.396Z,6492.00
2018-08-18T10:02:07.401Z,6728.00
2018-08-18T10:03:07.406Z,7008.00
2018-08-18T10:04:07.411Z,7080.00
2018-08-18T10:05:07.419Z,7020.00
2018-08-18T10:06:07.417Z,6896.00
2018-08-18T10:07:07.421Z,6852.00
2018-08-18T10:08:07.426Z,6720.00
2018-08-18T10:09:08.071Z,6508.00
2018-08-18T10:10:07.435Z,6252.00
2018-08-18T10:11:07.438Z,6000.00
2018-08-18T10:12:07.454Z,5812.00
2018-08-18T10:13:07.453Z,5752.00
2018-08-18T10:14:07.449Z,5704.00
2018-08-18T10:15:07.455Z,5744.00
2018-08-18T10:16:07.460Z,5824.00
2018-08-18T10:17:07.461Z,5916.00
2018-08-18T10:18:07.466Z,6032.00
2018-08-18T10:19:07.507Z,6172.00
2018-08-18T10:20:07.476Z,6464.00
2018-08-18T10:21:07.479Z,6688.00
2018-08-18T10:22:08.097Z,6776.00
2018-08-18T10:23:07.489Z,6772.00
2018-08-18T10:24:07.493Z,6928.00
2018-08-18T10:25:07.495Z,7004.00
2018-08-18T10:26:07.500Z,7396.00
2018-08-18T10:27:07.550Z,7532.00
2018-08-18T10:28:07.509Z,7352.00
2018-08-18T10:29:07.513Z,7240.00
2018-08-18T10:30:07.521Z,7072.00
2018-08-18T10:31:07.520Z,7176.00
2018-08-18T10:32:07.527Z,7444.00
2018-08-18T10:33:07.551Z,7516.00
2018-08-18T10:34:07.537Z,7452.00
2018-08-18T10:35:07.540Z,7408.00
2018-08-18T10:36:07.544Z,7652.00
2018-08-18T10:37:07.546Z,7052.00
2018-08-18T10:38:07.554Z,6884.00
2018-08-18T10:39:07.557Z,7112.00
2018-08-18T10:40:07.565Z,8016.00
2018-08-18T10:41:07.573Z,12160.00
2018-08-18T10:42:07.730Z,11712.00
2018-08-18T10:43:07.574Z,14432.00
2018-08-18T10:44:07.582Z,42112.00
2018-08-18T10:45:07.584Z,33408.00
2018-08-18T10:46:07.589Z,38272.00
2018-08-18T10:47:07.594Z,11852.00
2018-08-18T10:48:07.602Z,7864.00
2018-08-18T10:49:07.607Z,8180.00
2018-08-18T10:50:07.614Z,8560.00
2018-08-18T10:51:07.615Z,7812.00
2018-08-18T10:52:07.621Z,7848.00
2018-08-18T10:53:07.625Z,7860.00
2018-08-18T10:54:07.631Z,8252.00
2018-08-18T10:55:07.638Z,8620.00
2018-08-18T10:56:07.645Z,7520.00
2018-08-18T10:57:07.650Z,6480.00
2018-08-18T10:58:07.656Z,5736.00
2018-08-18T10:59:07.663Z,5540.00
2018-08-18T11:00:07.664Z,5648.00
2018-08-18T11:01:07.666Z,5868.00
2018-08-18T11:02:07.673Z,6880.00
2018-08-18T11:03:07.683Z,5524.00
2018-08-18T11:04:07.683Z,5804.00
2018-08-18T11:05:07.687Z,5012.00
2018-08-18T11:06:07.693Z,5232.00
2018-08-18T11:07:07.699Z,5332.00
2018-08-18T11:08:07.704Z,6380.00
2018-08-18T11:09:07.713Z,7060.00
2018-08-18T11:10:07.717Z,7176.00
2018-08-18T11:11:07.717Z,7116.00
2018-08-18T11:12:07.721Z,7368.00
2018-08-18T11:13:07.727Z,7524.00
2018-08-18T11:14:07.730Z,6840.00
2018-08-18T11:15:07.737Z,5684.00
2018-08-18T11:16:07.743Z,5280.00
2018-08-18T11:17:07.744Z,5076.00
2018-08-18T11:18:07.749Z,4848.00
2018-08-18T11:19:07.754Z,4720.00
2018-08-18T11:20:07.759Z,4704.00
2018-08-18T11:21:07.763Z,4744.00
2018-08-18T11:22:07.772Z,4760.00
2018-08-18T11:23:07.772Z,4792.00
2018-08-18T11:24:07.777Z,4720.00
2018-08-18T11:25:07.782Z,4664.00
2018-08-18T11:26:07.790Z,4600.00
2018-08-18T11:27:07.791Z,4516.00
2018-08-18T11:28:07.797Z,4444.00
2018-08-18T11:29:07.800Z,4416.00
2018-08-18T11:30:07.804Z,4388.00
2018-08-18T11:31:07.809Z,4404.00
2018-08-18T11:32:07.825Z,4460.00
2018-08-18T11:33:07.839Z,4588.00
2018-08-18T11:34:07.822Z,4740.00
2018-08-18T11:35:07.870Z,4840.00
2018-08-18T11:36:07.832Z,4876.00
2018-08-18T11:37:07.839Z,4932.00
2018-08-18T11:38:08.029Z,5048.00
2018-08-18T11:39:07.844Z,5264.00
2018-08-18T11:40:07.891Z,5592.00
2018-08-18T11:41:07.920Z,6132.00
2018-08-18T11:42:07.877Z,6628.00
2018-08-18T11:43:07.862Z,6832.00
2018-08-18T11:44:07.869Z,6872.00
2018-08-18T11:45:07.870Z,7088.00
2018-08-18T11:46:07.877Z,7084.00
2018-08-18T11:47:07.987Z,7252.00
2018-08-18T11:48:07.885Z,7384.00
2018-08-18T11:49:07.890Z,7288.00
2018-08-18T11:50:07.893Z,7084.00
2018-08-18T11:51:07.897Z,6924.00
2018-08-18T11:52:07.905Z,6724.00
2018-08-18T11:53:07.907Z,6664.00
2018-08-18T11:54:07.916Z,6532.00
2018-08-18T11:55:07.916Z,6444.00
2018-08-18T11:56:07.925Z,6476.00
2018-08-18T11:57:07.928Z,6636.00
2018-08-18T11:58:07.930Z,6920.00
2018-08-18T11:59:07.935Z,7196.00
2018-08-18T12:00:07.942Z,7420.00
2018-08-18T12:01:07.960Z,7580.00
2018-08-18T12:02:08.014Z,7828.00
2018-08-18T12:03:07.955Z,8076.00
2018-08-18T12:04:07.971Z,8308.00
2018-08-18T12:05:07.963Z,8404.00
2018-08-18T12:06:07.969Z,8404.00
2018-08-18T12:07:07.975Z,8476.00
2018-08-18T12:08:07.981Z,8540.00
2018-08-18T12:09:07.985Z,8632.00
2018-08-18T12:10:07.989Z,8564.00
2018-08-18T12:11:08.071Z,8388.00
2018-08-18T12:12:08.001Z,8056.00
2018-08-18T12:13:08.008Z,7960.00
2018-08-18T12:14:08.027Z,7824.00
2018-08-18T12:15:08.017Z,7688.00
2018-08-18T12:16:08.022Z,7696.00
2018-08-18T12:17:08.034Z,7592.00
2018-08-18T12:18:08.029Z,7512.00
2018-08-18T12:19:08.042Z,7292.00
2018-08-18T12:20:08.041Z,6740.00
2018-08-18T12:21:08.044Z,5872.00
2018-08-18T12:22:08.328Z,5352.00
2018-08-18T12:23:08.054Z,5272.00
2018-08-18T12:24:08.164Z,5292.00
2018-08-18T12:25:09.220Z,5220.00
2018-08-18T12:26:08.069Z,5092.00
2018-08-18T12:27:09.087Z,5040.00
2018-08-18T12:28:08.129Z,4996.00
2018-08-18T12:29:08.083Z,4860.00
2018-08-18T12:30:08.092Z,4976.00
2018-08-18T12:31:08.096Z,4932.00